createdAt,value
2019-05-23T00:00:10.923Z,55.90
2019-05-23T00:00:46.092Z,49.90
2019-05-23T00:01:21.457Z,62.00
2019-05-23T00:01:56.925Z,71.40
2019-05-23T00:02:32.232Z,90.50
2019-05-23T00:03:07.396Z,93.60
2019-05-23T00:03:42.489Z,72.30
2019-05-23T00:04:17.968Z,69.90
2019-05-23T00:04:53.180Z,80.90
2019-05-23T00:05:28.549Z,79.20
2019-05-23T00:06:04.044Z,77.80
2019-05-23T00:06:39.233Z,63.00
2019-05-23T00:07:14.631Z,69.50
2019-05-23T00:07:49.907Z,75.90
2019-05-23T00:08:25.308Z,89.10
2019-05-23T00:09:00.776Z,75.80
2019-05-23T00:09:35.960Z,69.30
2019-05-23T00:10:11.424Z,69.60
2019-05-23T00:10:47.027Z,75.70
2019-05-23T00:11:22.604Z,72.80
2019-05-23T00:11:57.720Z,60.40
2019-05-23T00:12:33.029Z,55.00
2019-05-23T00:13:08.822Z,50.50
2019-05-23T00:13:44.197Z,44.20
2019-05-23T00:14:19.961Z,57.70
2019-05-23T00:14:55.237Z,72.70
2019-05-23T00:15:30.436Z,67.00
2019-05-23T00:16:05.707Z,68.00
2019-05-23T00:16:41.324Z,66.60
2019-05-23T00:17:16.602Z,70.60
2019-05-23T00:17:51.888Z,64.20
2019-05-23T00:18:27.355Z,71.70
2019-05-23T00:19:02.673Z,68.60
2019-05-23T00:19:37.741Z,59.70
2019-05-23T00:20:13.259Z,50.20
2019-05-23T00:20:48.342Z,55.10
2019-05-23T00:21:23.561Z,59.30
2019-05-23T00:21:58.829Z,64.00
2019-05-23T00:22:34.131Z,59.60
2019-05-23T00:23:09.521Z,65.10
2019-05-23T00:23:44.830Z,69.10
2019-05-23T00:24:20.196Z,60.60
2019-05-23T00:24:55.498Z,63.60
2019-05-23T00:25:30.861Z,63.70
2019-05-23T00:26:06.279Z,65.00
2019-05-23T00:26:41.773Z,64.00
2019-05-23T00:27:16.977Z,74.70
2019-05-23T00:27:52.048Z,74.30
2019-05-23T00:28:27.647Z,68.00
2019-05-23T00:29:09.866Z,49.30
2019-05-23T00:29:40.427Z,63.50
2019-05-23T00:30:13.873Z,68.10
2019-05-23T00:30:49.389Z,64.40
2019-05-23T00:31:24.691Z,63.80
2019-05-23T00:32:00.387Z,53.30
2019-05-23T00:32:35.759Z,47.90
2019-05-23T00:33:11.151Z,44.70
2019-05-23T00:33:46.430Z,54.80
2019-05-23T00:34:21.727Z,70.30
2019-05-23T00:34:57.002Z,65.40
2019-05-23T00:35:32.506Z,53.40
2019-05-23T00:36:07.600Z,60.00
2019-05-23T00:36:42.790Z,63.50
2019-05-23T00:37:18.369Z,67.50
2019-05-23T00:37:53.564Z,69.40
2019-05-23T00:38:28.929Z,58.10
2019-05-23T00:39:04.143Z,56.90
2019-05-23T00:39:39.517Z,53.30
2019-05-23T00:40:14.915Z,49.80
2019-05-23T00:40:50.488Z,57.50
2019-05-23T00:41:25.619Z,52.50
2019-05-23T00:42:00.790Z,55.30
2019-05-23T00:42:36.181Z,66.40
2019-05-23T00:43:11.451Z,64.50
2019-05-23T00:43:46.759Z,64.60
2019-05-23T00:44:22.139Z,55.70
2019-05-23T00:44:57.455Z,45.60
2019-05-23T00:45:32.928Z,73.40
2019-05-23T00:46:08.349Z,69.60
2019-05-23T00:46:43.327Z,72.60
2019-05-23T00:47:18.536Z,60.90
2019-05-23T00:47:53.904Z,64.40
2019-05-23T00:48:29.212Z,62.40
2019-05-23T00:49:04.499Z,66.70
2019-05-23T00:49:39.902Z,55.60
2019-05-23T00:50:15.178Z,50.20
2019-05-23T00:50:50.792Z,59.30
2019-05-23T00:51:26.102Z,62.90
2019-05-23T00:52:01.215Z,68.60
2019-05-23T00:52:36.387Z,60.50
2019-05-23T00:53:11.792Z,55.40
2019-05-23T00:53:47.273Z,60.80
2019-05-23T00:54:22.594Z,71.40
2019-05-23T00:54:57.976Z,65.90
2019-05-23T00:55:33.184Z,53.80
2019-05-23T00:56:08.699Z,50.80
2019-05-23T00:56:44.192Z,52.60
2019-05-23T00:57:19.468Z,58.30
2019-05-23T00:57:54.889Z,69.20
2019-05-23T00:58:30.158Z,71.00
2019-05-23T00:59:05.568Z,72.10
2019-05-23T00:59:40.851Z,68.80
2019-05-23T01:00:16.271Z,52.20
2019-05-23T01:00:51.632Z,68.80
2019-05-23T01:01:26.931Z,65.10
2019-05-23T01:02:02.485Z,56.70
2019-05-23T01:02:37.864Z,62.30
2019-05-23T01:03:13.337Z,53.00
2019-05-23T01:03:48.748Z,45.00
2019-05-23T01:04:24.127Z,42.20
2019-05-23T01:04:59.450Z,60.30
2019-05-23T01:05:34.722Z,69.20
2019-05-23T01:06:09.858Z,59.60
2019-05-23T01:06:44.831Z,48.30
2019-05-23T01:07:20.052Z,63.90
2019-05-23T01:07:55.447Z,75.80
2019-05-23T01:08:30.648Z,77.40
2019-05-23T01:09:06.044Z,61.00
2019-05-23T01:09:41.444Z,48.60
2019-05-23T01:10:16.709Z,51.50
2019-05-23T01:10:52.229Z,61.80
2019-05-23T01:11:27.743Z,67.60
2019-05-23T01:12:03.152Z,64.40
2019-05-23T01:12:38.529Z,66.70
2019-05-23T01:13:13.941Z,74.50
2019-05-23T01:13:49.466Z,76.10
2019-05-23T01:14:24.766Z,72.90
2019-05-23T01:15:00.056Z,64.40
2019-05-23T01:15:35.579Z,62.20
2019-05-23T01:16:11.184Z,57.50
2019-05-23T01:16:46.500Z,66.70
2019-05-23T01:17:21.655Z,62.00
2019-05-23T01:17:56.874Z,68.70
2019-05-23T01:18:32.340Z,67.30
2019-05-23T01:19:07.857Z,75.20
2019-05-23T01:19:43.233Z,68.60
2019-05-23T01:20:18.559Z,69.60
2019-05-23T01:20:53.941Z,75.80
2019-05-23T01:21:29.266Z,70.10
2019-05-23T01:22:04.356Z,70.30
2019-05-23T01:22:40.073Z,71.60
2019-05-23T01:23:15.254Z,67.90
2019-05-23T01:23:50.759Z,80.90
2019-05-23T01:24:25.858Z,66.00
2019-05-23T01:25:01.092Z,69.40
2019-05-23T01:25:36.367Z,65.80
2019-05-23T01:26:11.899Z,62.70
2019-05-23T01:26:47.278Z,61.00
2019-05-23T01:27:22.981Z,64.70
2019-05-23T01:27:58.563Z,67.70
2019-05-23T01:28:33.881Z,68.60
2019-05-23T01:29:09.161Z,58.50
2019-05-23T01:29:49.696Z,47.10
2019-05-23T01:30:19.857Z,73.10
2019-05-23T01:30:55.268Z,75.40
2019-05-23T01:31:30.377Z,61.40
2019-05-23T01:32:05.894Z,58.70
2019-05-23T01:32:41.189Z,63.40
2019-05-23T01:33:16.805Z,60.60
2019-05-23T01:33:52.084Z,57.20
2019-05-23T01:34:27.505Z,63.90
2019-05-23T01:35:03.090Z,63.70
2019-05-23T01:35:38.208Z,70.50
2019-05-23T01:36:13.410Z,56.90
2019-05-23T01:36:48.828Z,53.20
2019-05-23T01:37:24.325Z,54.20
2019-05-23T01:38:04.056Z,64.40
2019-05-23T01:38:35.335Z,72.90
2019-05-23T01:39:10.642Z,71.70
2019-05-23T01:39:45.921Z,54.20
2019-05-23T01:40:21.135Z,47.30
2019-05-23T01:40:56.326Z,54.90
2019-05-23T01:41:31.567Z,69.10
2019-05-23T01:42:07.135Z,61.30
2019-05-23T01:42:42.364Z,55.60
2019-05-23T01:43:17.849Z,63.50
2019-05-23T01:43:53.152Z,71.80
2019-05-23T01:44:28.552Z,74.50
2019-05-23T01:45:03.947Z,51.70
2019-05-23T01:45:39.153Z,57.50
2019-05-23T01:46:14.792Z,71.80
2019-05-23T01:46:49.879Z,82.10
2019-05-23T01:47:25.087Z,82.70
2019-05-23T01:48:00.471Z,68.50
2019-05-23T01:48:35.680Z,49.60
2019-05-23T01:49:10.976Z,50.50
2019-05-23T01:49:46.502Z,69.30
2019-05-23T01:50:21.797Z,78.60
2019-05-23T01:50:57.298Z,55.40
2019-05-23T01:51:32.871Z,55.80
2019-05-23T01:52:08.116Z,59.70
2019-05-23T01:52:43.495Z,57.80
2019-05-23T01:53:18.705Z,64.50
2019-05-23T01:53:53.897Z,67.90
2019-05-23T01:54:29.200Z,66.20
2019-05-23T01:55:04.690Z,57.10
2019-05-23T01:55:39.999Z,52.60
2019-05-23T01:56:15.495Z,61.80
2019-05-23T01:56:50.894Z,71.00
2019-05-23T01:57:26.163Z,58.00
2019-05-23T01:58:01.590Z,69.80
2019-05-23T01:58:36.774Z,73.60
2019-05-23T01:59:12.387Z,76.40
2019-05-23T01:59:48.069Z,78.60
2019-05-23T02:00:23.481Z,69.20
2019-05-23T02:00:58.482Z,61.50
2019-05-23T02:01:33.924Z,57.20
2019-05-23T02:02:09.198Z,45.90
2019-05-23T02:02:44.785Z,57.60
2019-05-23T02:03:20.052Z,70.90
2019-05-23T02:03:55.377Z,65.50
2019-05-23T02:04:30.632Z,66.90
2019-05-23T02:05:05.947Z,56.20
2019-05-23T02:05:41.327Z,43.90
2019-05-23T02:06:16.582Z,68.80
2019-05-23T02:06:51.953Z,77.80
2019-05-23T02:07:27.086Z,76.30
2019-05-23T02:08:02.589Z,58.20
2019-05-23T02:08:37.857Z,66.20
2019-05-23T02:09:13.148Z,65.70
2019-05-23T02:09:48.540Z,57.90
2019-05-23T02:10:23.838Z,66.80
2019-05-23T02:10:58.952Z,61.10
2019-05-23T02:11:34.063Z,48.40
2019-05-23T02:12:09.176Z,58.20
2019-05-23T02:12:44.656Z,65.20
2019-05-23T02:13:20.276Z,72.70
2019-05-23T02:13:55.564Z,65.40
2019-05-23T02:14:30.880Z,70.40
2019-05-23T02:15:06.050Z,69.50
2019-05-23T02:15:41.550Z,75.30
2019-05-23T02:16:16.741Z,67.10
2019-05-23T02:16:52.054Z,53.90
2019-05-23T02:17:27.625Z,63.90
2019-05-23T02:18:02.995Z,73.40
2019-05-23T02:18:38.137Z,67.50
2019-05-23T02:19:13.754Z,67.30
2019-05-23T02:19:48.832Z,67.20
2019-05-23T02:20:24.055Z,63.60
2019-05-23T02:20:59.518Z,71.60
2019-05-23T02:21:35.255Z,72.50
2019-05-23T02:22:10.554Z,71.60
2019-05-23T02:22:46.366Z,79.30
2019-05-23T02:23:21.648Z,69.40
2019-05-23T02:23:57.370Z,59.70
2019-05-23T02:24:32.544Z,52.70
2019-05-23T02:25:08.044Z,51.50
2019-05-23T02:25:43.220Z,65.80
2019-05-23T02:26:18.448Z,85.30
2019-05-23T02:26:54.029Z,77.80
2019-05-23T02:27:29.574Z,52.50
2019-05-23T02:28:04.963Z,61.90
2019-05-23T02:28:40.455Z,73.50
2019-05-23T02:29:15.941Z,89.30
2019-05-23T02:29:51.076Z,75.20
2019-05-23T02:30:35.787Z,79.40
2019-05-23T02:31:01.663Z,66.10
2019-05-23T02:31:36.784Z,63.90
2019-05-23T02:32:12.387Z,65.40
2019-05-23T02:32:47.867Z,64.20
2019-05-23T02:33:23.262Z,62.20
2019-05-23T02:33:58.545Z,61.70
2019-05-23T02:34:33.772Z,58.70
2019-05-23T02:35:09.157Z,60.90
2019-05-23T02:35:44.693Z,56.30
2019-05-23T02:36:19.748Z,58.10
2019-05-23T02:36:54.963Z,57.50
2019-05-23T02:37:30.433Z,62.20
2019-05-23T02:38:05.745Z,71.80
2019-05-23T02:38:41.099Z,68.90
2019-05-23T02:39:16.410Z,78.60
2019-05-23T02:39:51.386Z,91.10
2019-05-23T02:40:26.804Z,83.60
2019-05-23T02:41:02.285Z,72.90
2019-05-23T02:41:37.604Z,70.60
2019-05-23T02:42:12.686Z,73.20
2019-05-23T02:42:48.204Z,67.40
2019-05-23T02:43:23.693Z,69.40
2019-05-23T02:43:58.904Z,63.90
2019-05-23T02:44:34.384Z,60.00
2019-05-23T02:45:09.899Z,59.90
2019-05-23T02:45:45.074Z,67.20
2019-05-23T02:46:20.435Z,63.40
2019-05-23T02:46:55.711Z,53.50
2019-05-23T02:47:31.419Z,59.90
2019-05-23T02:48:06.811Z,62.00
2019-05-23T02:48:42.112Z,72.50
2019-05-23T02:49:17.191Z,72.50
2019-05-23T02:49:52.500Z,55.30
2019-05-23T02:50:27.789Z,71.30
2019-05-23T02:51:03.141Z,81.80
2019-05-23T02:51:38.505Z,77.60
2019-05-23T02:52:14.209Z,55.70
2019-05-23T02:52:49.383Z,43.10
2019-05-23T02:53:24.594Z,44.90
2019-05-23T02:53:59.858Z,57.80
2019-05-23T02:54:37.448Z,60.90
2019-05-23T02:55:10.570Z,68.00
2019-05-23T02:55:45.688Z,63.50
2019-05-23T02:56:21.178Z,55.40
2019-05-23T02:56:56.514Z,69.80
2019-05-23T02:57:31.996Z,79.10
2019-05-23T02:58:07.306Z,80.20
2019-05-23T02:58:42.579Z,69.30
2019-05-23T02:59:17.882Z,62.80
2019-05-23T02:59:53.263Z,75.60
2019-05-23T03:00:28.757Z,79.20
2019-05-23T03:01:04.039Z,69.40
2019-05-23T03:01:39.740Z,78.40
2019-05-23T03:02:15.121Z,75.40
2019-05-23T03:02:50.349Z,74.50
2019-05-23T03:03:25.526Z,73.80
2019-05-23T03:04:00.728Z,68.90
2019-05-23T03:04:36.409Z,69.70
2019-05-23T03:05:11.811Z,73.40
2019-05-23T03:05:47.084Z,82.90
2019-05-23T03:06:22.420Z,66.00
2019-05-23T03:06:57.502Z,89.10
2019-05-23T03:07:32.812Z,80.90
2019-05-23T03:08:08.399Z,74.30
2019-05-23T03:08:43.700Z,63.00
2019-05-23T03:09:18.772Z,54.90
2019-05-23T03:09:54.089Z,87.70
2019-05-23T03:10:29.570Z,84.50
2019-05-23T03:11:04.983Z,76.30
2019-05-23T03:11:40.308Z,79.50
2019-05-23T03:12:15.841Z,79.30
2019-05-23T03:12:51.120Z,80.50
2019-05-23T03:13:26.613Z,79.80
2019-05-23T03:14:02.187Z,71.90
2019-05-23T03:14:37.791Z,82.10
2019-05-23T03:15:13.268Z,80.20
2019-05-23T03:15:48.485Z,74.20
2019-05-23T03:16:23.690Z,80.60
2019-05-23T03:16:58.794Z,88.20
2019-05-23T03:17:33.981Z,84.10
2019-05-23T03:18:09.486Z,71.70
2019-05-23T03:18:44.955Z,58.60
2019-05-23T03:19:20.454Z,62.10
2019-05-23T03:19:56.157Z,70.30
2019-05-23T03:20:31.269Z,78.20
2019-05-23T03:21:06.748Z,92.70
2019-05-23T03:21:41.961Z,75.20
2019-05-23T03:22:17.144Z,72.40
2019-05-23T03:22:52.651Z,69.50
2019-05-23T03:23:27.922Z,71.90
2019-05-23T03:24:03.549Z,72.10
2019-05-23T03:24:38.722Z,80.50
2019-05-23T03:25:14.214Z,73.30
2019-05-23T03:25:49.488Z,53.20
2019-05-23T03:26:25.117Z,50.90
2019-05-23T03:27:00.374Z,61.70
2019-05-23T03:27:35.390Z,80.70
2019-05-23T03:28:11.060Z,83.90
2019-05-23T03:28:46.322Z,61.00
2019-05-23T03:29:21.560Z,55.70
2019-05-23T03:29:56.758Z,71.30
2019-05-23T03:30:31.937Z,81.50
2019-05-23T03:31:27.393Z,71.70
2019-05-23T03:31:42.787Z,75.00
2019-05-23T03:32:18.258Z,76.70
2019-05-23T03:32:53.354Z,70.90
2019-05-23T03:33:28.688Z,83.10
2019-05-23T03:34:04.077Z,82.90
2019-05-23T03:34:39.365Z,60.20
2019-05-23T03:35:14.544Z,69.90
2019-05-23T03:35:49.846Z,75.10
2019-05-23T03:36:25.523Z,80.40
2019-05-23T03:37:00.843Z,67.40
2019-05-23T03:37:56.127Z,69.90
2019-05-23T03:38:31.521Z,80.30
2019-05-23T03:39:06.710Z,70.50
2019-05-23T03:39:42.118Z,61.30
2019-05-23T03:40:17.392Z,58.30
2019-05-23T03:40:52.905Z,56.10
2019-05-23T03:41:28.087Z,64.20
2019-05-23T03:42:03.398Z,76.40
2019-05-23T03:42:38.576Z,67.20
2019-05-23T03:43:13.871Z,62.00
2019-05-23T03:43:49.163Z,59.10
2019-05-23T03:44:24.480Z,66.10
2019-05-23T03:44:59.851Z,71.80
2019-05-23T03:45:39.357Z,66.40
2019-05-23T03:46:10.752Z,70.30
2019-05-23T03:46:46.161Z,72.40
2019-05-23T03:47:21.352Z,52.40
2019-05-23T03:47:56.758Z,62.20
2019-05-23T03:48:32.047Z,74.90
2019-05-23T03:49:07.456Z,66.00
2019-05-23T03:49:42.833Z,58.60
2019-05-23T03:50:18.326Z,57.30
2019-05-23T03:50:53.718Z,63.40
2019-05-23T03:51:29.047Z,71.40
2019-05-23T03:52:04.632Z,87.20
2019-05-23T03:52:39.833Z,61.90
2019-05-23T03:53:15.113Z,70.80
2019-05-23T03:53:50.720Z,82.60
2019-05-23T03:54:26.006Z,72.70
2019-05-23T03:55:01.809Z,76.10
2019-05-23T03:55:37.079Z,79.60
2019-05-23T03:56:12.298Z,76.00
2019-05-23T03:56:47.372Z,76.80
2019-05-23T03:57:25.573Z,76.60
2019-05-23T03:57:57.959Z,82.50
2019-05-23T03:58:33.680Z,79.70
2019-05-23T03:59:08.949Z,75.90
2019-05-23T03:59:44.458Z,64.90
2019-05-23T04:00:20.047Z,55.10
2019-05-23T04:00:55.347Z,71.30
2019-05-23T04:01:45.979Z,79.00
2019-05-23T04:02:05.767Z,80.80
2019-05-23T04:02:41.332Z,76.20
2019-05-23T04:03:16.868Z,66.70
2019-05-23T04:03:52.010Z,63.40
2019-05-23T04:04:27.319Z,70.20
2019-05-23T04:05:02.532Z,71.10
2019-05-23T04:05:37.704Z,72.50
2019-05-23T04:06:13.000Z,65.20
2019-05-23T04:06:48.112Z,81.20
2019-05-23T04:07:23.290Z,84.70
2019-05-23T04:07:58.718Z,74.70
2019-05-23T04:08:34.010Z,69.10
2019-05-23T04:09:09.349Z,60.00
2019-05-23T04:09:44.723Z,56.60
2019-05-23T04:10:19.830Z,83.50
2019-05-23T04:10:55.086Z,87.90
2019-05-23T04:11:30.535Z,85.10
2019-05-23T04:12:05.798Z,75.80
2019-05-23T04:12:41.128Z,77.40
2019-05-23T04:13:16.728Z,85.10
2019-05-23T04:13:51.923Z,91.00
2019-05-23T04:14:27.113Z,80.80
2019-05-23T04:15:02.099Z,62.40
2019-05-23T04:15:37.280Z,73.90
2019-05-23T04:16:12.582Z,84.10
2019-05-23T04:16:47.869Z,86.40
2019-05-23T04:17:23.272Z,74.10
2019-05-23T04:17:58.449Z,82.50
2019-05-23T04:18:33.441Z,88.90
2019-05-23T04:19:08.821Z,80.10
2019-05-23T04:19:44.229Z,89.10
2019-05-23T04:20:19.200Z,78.20
2019-05-23T04:20:54.409Z,61.80
2019-05-23T04:21:29.726Z,73.50
2019-05-23T04:22:05.021Z,77.40
2019-05-23T04:22:40.403Z,67.80
2019-05-23T04:23:15.500Z,55.80
2019-05-23T04:23:50.776Z,72.40
2019-05-23T04:24:26.173Z,71.10
2019-05-23T04:25:02.323Z,75.00
2019-05-23T04:25:37.192Z,72.30
2019-05-23T04:26:12.502Z,64.30
2019-05-23T04:26:47.783Z,74.70
2019-05-23T04:27:23.377Z,74.40
2019-05-23T04:27:58.559Z,71.40
2019-05-23T04:28:33.753Z,72.20
2019-05-23T04:29:09.031Z,65.50
2019-05-23T04:29:44.331Z,50.90
2019-05-23T04:30:19.500Z,56.20
2019-05-23T04:30:54.899Z,61.40
2019-05-23T04:31:30.203Z,69.40
2019-05-23T04:32:08.745Z,66.40
2019-05-23T04:32:41.026Z,64.00
2019-05-23T04:33:16.291Z,56.60
2019-05-23T04:33:51.581Z,60.90
2019-05-23T04:34:27.288Z,71.20
2019-05-23T04:35:02.556Z,75.00
2019-05-23T04:35:38.191Z,64.50
2019-05-23T04:36:13.894Z,55.00
2019-05-23T04:36:49.189Z,54.10
2019-05-23T04:37:24.674Z,72.80
2019-05-23T04:37:59.974Z,73.60
2019-05-23T04:38:36.442Z,77.30
2019-05-23T04:39:10.574Z,75.60
2019-05-23T04:39:46.143Z,56.20
2019-05-23T04:40:21.365Z,47.20
2019-05-23T04:40:56.735Z,59.20
2019-05-23T04:41:32.254Z,63.90
2019-05-23T04:42:07.938Z,68.20
2019-05-23T04:42:43.259Z,71.50
2019-05-23T04:43:19.034Z,76.20
2019-05-23T04:43:54.447Z,78.50
2019-05-23T04:44:29.622Z,72.60
2019-05-23T04:45:04.813Z,81.50
2019-05-23T04:45:40.130Z,68.50
2019-05-23T04:46:15.361Z,50.10
2019-05-23T04:46:50.756Z,55.00
2019-05-23T04:47:26.036Z,58.90
2019-05-23T04:48:01.649Z,62.90
2019-05-23T04:48:36.819Z,66.30
2019-05-23T04:49:12.148Z,54.40
2019-05-23T04:49:47.412Z,52.30
2019-05-23T04:50:22.810Z,63.70
2019-05-23T04:51:00.179Z,55.20
2019-05-23T04:51:33.645Z,60.30
2019-05-23T04:52:09.031Z,57.10
2019-05-23T04:52:44.155Z,50.90
2019-05-23T04:53:19.437Z,45.20
2019-05-23T04:53:54.738Z,54.10
2019-05-23T04:54:30.029Z,54.70
2019-05-23T04:55:05.328Z,47.90
2019-05-23T04:55:40.607Z,41.60
2019-05-23T04:56:16.028Z,39.20
2019-05-23T04:56:51.207Z,49.60
2019-05-23T04:57:26.809Z,51.70
2019-05-23T04:58:04.665Z,55.30
2019-05-23T04:58:37.386Z,45.20
2019-05-23T04:59:12.868Z,36.50
2019-05-23T04:59:48.189Z,39.60
2019-05-23T05:00:23.559Z,45.90
2019-05-23T05:00:59.501Z,43.40
2019-05-23T05:01:34.837Z,37.70
2019-05-23T05:02:24.777Z,36.60
2019-05-23T05:02:45.522Z,43.00
2019-05-23T05:03:20.901Z,34.90
2019-05-23T05:03:56.102Z,34.70
2019-05-23T05:04:31.423Z,33.20
2019-05-23T05:05:06.791Z,30.40
2019-05-23T05:05:41.921Z,34.70
2019-05-23T05:06:17.207Z,31.20
2019-05-23T05:06:52.406Z,28.50
2019-05-23T05:07:27.874Z,22.90
2019-05-23T05:08:03.313Z,19.60
2019-05-23T05:08:38.742Z,31.90
2019-05-23T05:09:14.227Z,33.60
2019-05-23T05:09:49.454Z,32.70
2019-05-23T05:10:24.846Z,26.70
2019-05-23T05:11:00.148Z,22.00
2019-05-23T05:11:35.545Z,21.00
2019-05-23T05:12:10.637Z,29.20
2019-05-23T05:12:46.214Z,27.30
2019-05-23T05:13:21.632Z,21.40
2019-05-23T05:13:57.316Z,17.20
2019-05-23T05:14:33.583Z,15.40
2019-05-23T05:15:09.062Z,16.00
2019-05-23T05:15:44.333Z,26.90
2019-05-23T05:16:19.579Z,24.40
2019-05-23T05:16:54.966Z,19.50
2019-05-23T05:17:30.602Z,15.50
2019-05-23T05:18:06.311Z,14.90
2019-05-23T05:18:41.518Z,15.90
2019-05-23T05:19:16.748Z,18.80
2019-05-23T05:19:51.995Z,19.80
2019-05-23T05:20:27.389Z,18.50
2019-05-23T05:21:02.784Z,16.90
2019-05-23T05:21:38.231Z,27.50
2019-05-23T05:22:13.910Z,22.30
2019-05-23T05:22:49.191Z,19.50
2019-05-23T05:23:24.702Z,22.80
2019-05-23T05:24:00.080Z,18.00
2019-05-23T05:24:39.809Z,15.80
2019-05-23T05:25:10.972Z,31.40
2019-05-23T05:25:46.182Z,25.80
2019-05-23T05:26:21.349Z,18.10
2019-05-23T05:26:56.627Z,15.70
2019-05-23T05:27:31.942Z,17.40
2019-05-23T05:28:07.134Z,19.20
2019-05-23T05:28:42.550Z,19.60
2019-05-23T05:29:17.741Z,16.80
2019-05-23T05:29:53.085Z,18.40
2019-05-23T05:30:28.366Z,21.80
2019-05-23T05:31:03.827Z,24.80
2019-05-23T05:31:39.338Z,17.70
2019-05-23T05:32:14.848Z,16.30
2019-05-23T05:32:50.435Z,19.00
2019-05-23T05:33:25.647Z,19.90
2019-05-23T05:34:01.043Z,21.00
2019-05-23T05:34:36.336Z,17.30
2019-05-23T05:35:11.667Z,16.50
2019-05-23T05:35:46.939Z,18.20
2019-05-23T05:36:22.363Z,20.20
2019-05-23T05:36:57.966Z,20.80
2019-05-23T05:37:33.368Z,18.30
2019-05-23T05:38:08.661Z,15.80
2019-05-23T05:38:44.167Z,17.90
2019-05-23T05:39:19.862Z,22.60
2019-05-23T05:39:55.061Z,26.80
2019-05-23T05:40:30.538Z,23.70
2019-05-23T05:41:05.762Z,18.90
2019-05-23T05:41:40.954Z,20.50
2019-05-23T05:42:16.273Z,27.60
2019-05-23T05:42:51.350Z,24.20
2019-05-23T05:43:26.667Z,19.30
2019-05-23T05:44:02.169Z,32.80
2019-05-23T05:44:37.567Z,29.10
2019-05-23T05:45:13.162Z,29.60
2019-05-23T05:45:48.473Z,25.10
2019-05-23T05:46:23.997Z,20.50
2019-05-23T05:46:59.502Z,19.40
2019-05-23T05:47:34.887Z,22.00
2019-05-23T05:48:10.399Z,28.90
2019-05-23T05:48:46.084Z,27.40
2019-05-23T05:49:21.517Z,21.90
2019-05-23T05:49:56.700Z,18.70
2019-05-23T05:50:31.902Z,20.20
2019-05-23T05:51:07.052Z,26.00
2019-05-23T05:51:42.284Z,25.80
2019-05-23T05:52:17.583Z,26.50
2019-05-23T05:52:52.896Z,26.20
2019-05-23T05:53:28.322Z,25.00
2019-05-23T05:54:03.640Z,31.30
2019-05-23T05:54:38.941Z,24.20
2019-05-23T05:55:14.329Z,24.70
2019-05-23T05:55:49.646Z,27.50
2019-05-23T05:56:25.059Z,25.10
2019-05-23T05:57:00.671Z,21.20
2019-05-23T05:57:36.053Z,21.60
2019-05-23T05:58:11.570Z,22.30
2019-05-23T05:58:46.855Z,26.90
2019-05-23T05:59:22.035Z,35.00
2019-05-23T05:59:57.251Z,25.90
2019-05-23T06:00:32.547Z,43.50
2019-05-23T06:01:07.897Z,37.20
2019-05-23T06:01:43.580Z,33.60
2019-05-23T06:02:18.887Z,45.00
2019-05-23T06:03:03.450Z,29.10
2019-05-23T06:03:29.413Z,25.90
2019-05-23T06:04:04.791Z,60.70
2019-05-23T06:04:40.282Z,38.60
2019-05-23T06:05:15.454Z,35.50
2019-05-23T06:05:50.591Z,32.20
2019-05-23T06:06:26.005Z,27.20
2019-05-23T06:07:01.722Z,30.50
2019-05-23T06:07:36.907Z,31.60
2019-05-23T06:08:12.478Z,34.80
2019-05-23T06:08:47.839Z,30.60
2019-05-23T06:09:23.014Z,30.20
2019-05-23T06:09:58.625Z,33.90
2019-05-23T06:10:34.420Z,41.20
2019-05-23T06:11:09.971Z,32.60
2019-05-23T06:11:45.359Z,30.40
2019-05-23T06:12:20.785Z,26.90
2019-05-23T06:12:55.972Z,25.30
2019-05-23T06:13:31.377Z,33.80
2019-05-23T06:14:06.739Z,40.20
2019-05-23T06:14:45.944Z,28.70
2019-05-23T06:15:17.487Z,26.30
2019-05-23T06:15:52.752Z,32.50
2019-05-23T06:16:27.891Z,39.70
2019-05-23T06:17:03.591Z,31.70
2019-05-23T06:17:39.198Z,24.90
2019-05-23T06:18:14.488Z,26.30
2019-05-23T06:18:49.786Z,27.60
2019-05-23T06:19:24.976Z,36.90
2019-05-23T06:20:00.307Z,31.50
2019-05-23T06:20:35.580Z,29.00
2019-05-23T06:21:10.903Z,43.90
2019-05-23T06:21:46.315Z,39.20
2019-05-23T06:22:21.836Z,34.60
2019-05-23T06:22:57.341Z,39.40
2019-05-23T06:23:32.841Z,27.70
2019-05-23T06:24:08.184Z,26.30
2019-05-23T06:24:48.914Z,30.50
2019-05-23T06:25:18.911Z,39.90
2019-05-23T06:25:54.601Z,32.00
2019-05-23T06:26:29.837Z,31.90
2019-05-23T06:27:05.249Z,32.40
2019-05-23T06:27:40.466Z,41.10
2019-05-23T06:28:15.944Z,38.60
2019-05-23T06:28:51.371Z,27.00
2019-05-23T06:29:26.762Z,27.10
2019-05-23T06:30:02.192Z,31.90
2019-05-23T06:30:37.290Z,44.50
2019-05-23T06:31:12.927Z,42.50
2019-05-23T06:31:48.230Z,33.00
2019-05-23T06:32:23.457Z,31.80
2019-05-23T06:32:58.673Z,51.80
2019-05-23T06:33:34.282Z,49.40
2019-05-23T06:34:09.495Z,31.70
2019-05-23T06:34:44.999Z,28.30
2019-05-23T06:35:20.350Z,34.00
2019-05-23T06:35:55.532Z,49.30
2019-05-23T06:36:31.169Z,57.80
2019-05-23T06:37:06.441Z,37.90
2019-05-23T06:37:42.176Z,27.70
2019-05-23T06:38:17.375Z,65.90
2019-05-23T06:38:52.686Z,47.00
2019-05-23T06:39:28.078Z,51.20
2019-05-23T06:40:03.498Z,35.50
2019-05-23T06:40:38.985Z,30.50
2019-05-23T06:41:14.220Z,55.80
2019-05-23T06:41:49.654Z,48.10
2019-05-23T06:42:24.849Z,35.90
2019-05-23T06:43:00.392Z,32.30
2019-05-23T06:43:35.807Z,37.00
2019-05-23T06:44:11.131Z,46.40
2019-05-23T06:44:46.515Z,47.80
2019-05-23T06:45:21.832Z,39.30
2019-05-23T06:45:57.023Z,29.20
2019-05-23T06:46:32.461Z,35.70
2019-05-23T06:47:07.649Z,62.90
2019-05-23T06:47:43.159Z,47.10
2019-05-23T06:48:18.580Z,44.00
2019-05-23T06:48:53.952Z,36.80
2019-05-23T06:49:29.174Z,38.80
2019-05-23T06:50:04.598Z,33.30
2019-05-23T06:50:39.809Z,27.40
2019-05-23T06:51:14.852Z,27.60
2019-05-23T06:51:50.281Z,27.30
2019-05-23T06:52:25.682Z,33.30
2019-05-23T06:53:01.101Z,25.90
2019-05-23T06:53:36.592Z,26.30
2019-05-23T06:54:12.131Z,45.10
2019-05-23T06:54:47.427Z,43.10
2019-05-23T06:55:22.548Z,38.00
2019-05-23T06:55:57.822Z,25.80
2019-05-23T06:56:32.954Z,23.50
2019-05-23T06:57:08.338Z,26.50
2019-05-23T06:57:43.693Z,29.70
2019-05-23T06:58:19.684Z,24.10
2019-05-23T06:58:54.750Z,22.80
2019-05-23T06:59:30.470Z,36.80
2019-05-23T07:00:05.933Z,45.80
2019-05-23T07:00:41.319Z,38.40
2019-05-23T07:01:16.833Z,30.80
2019-05-23T07:01:52.155Z,23.70
2019-05-23T07:02:31.495Z,26.10
2019-05-23T07:03:03.108Z,30.20
2019-05-23T07:03:43.203Z,32.70
2019-05-23T07:04:13.823Z,28.30
2019-05-23T07:04:49.198Z,20.30
2019-05-23T07:05:24.621Z,21.50
2019-05-23T07:06:00.139Z,22.90
2019-05-23T07:06:35.311Z,29.20
2019-05-23T07:07:10.531Z,28.80
2019-05-23T07:07:45.740Z,24.20
2019-05-23T07:08:25.015Z,27.40
2019-05-23T07:08:56.424Z,35.20
2019-05-23T07:09:31.973Z,28.50
2019-05-23T07:10:07.657Z,26.60
2019-05-23T07:10:43.759Z,24.70
2019-05-23T07:11:18.434Z,33.80
2019-05-23T07:11:53.645Z,32.60
2019-05-23T07:12:29.029Z,27.10
2019-05-23T07:13:04.368Z,25.90
2019-05-23T07:13:39.452Z,42.70
2019-05-23T07:14:14.705Z,41.20
2019-05-23T07:14:50.192Z,38.80
2019-05-23T07:15:25.767Z,62.90
2019-05-23T07:16:01.188Z,48.00
2019-05-23T07:16:36.790Z,43.90
2019-05-23T07:17:12.129Z,44.20
2019-05-23T07:17:47.304Z,36.00
2019-05-23T07:18:22.530Z,25.10
2019-05-23T07:18:57.928Z,45.10
2019-05-23T07:19:33.450Z,35.70
2019-05-23T07:20:08.698Z,36.40
2019-05-23T07:20:44.471Z,29.60
2019-05-23T07:21:19.315Z,37.90
2019-05-23T07:21:54.983Z,47.60
2019-05-23T07:22:29.945Z,46.10
2019-05-23T07:23:05.266Z,37.90
2019-05-23T07:23:40.585Z,28.60
2019-05-23T07:24:15.787Z,29.60
2019-05-23T07:24:58.214Z,34.40
2019-05-23T07:25:26.805Z,25.50
2019-05-23T07:26:02.488Z,23.90
2019-05-23T07:26:37.532Z,26.10
2019-05-23T07:27:12.741Z,25.70
2019-05-23T07:27:47.942Z,26.30
2019-05-23T07:28:23.261Z,20.20
2019-05-23T07:28:58.800Z,20.20
2019-05-23T07:29:34.371Z,24.50
2019-05-23T07:30:09.681Z,23.60
2019-05-23T07:30:44.797Z,22.80
2019-05-23T07:31:20.037Z,23.20
2019-05-23T07:31:55.422Z,26.40
2019-05-23T07:32:30.641Z,28.00
2019-05-23T07:33:06.135Z,44.30
2019-05-23T07:33:59.935Z,27.90
2019-05-23T07:34:16.918Z,35.60
2019-05-23T07:34:52.290Z,29.50
2019-05-23T07:35:27.472Z,22.50